Scroll down
FLIGHT INFORMATION
American Airlines

AAL314

At Arrival Gate

KMIA
 KLAX
DATE: 2021-04-24
GATE: A18
GATE DEPARTURE: 23:52
TAKEOFF: 00:15
DATE: 2021-04-25
GATE:  -
LANDING: 05:29
GATE ARRIVAL: 05:43
FLIGHT DATA
Crew: 
Speed: 
504 kts
Altitude: 
38,012 ft
Stage Length: 
2,031.6 nm
Block Time: 
5.8 hrs
Flight Time: 
5.2 hrs
Fuel Used: 
83,880 lb
Cleared Route: KMIA SENOY CIMBA FORKK BORLE MEAGN WINCO CHRRI DOLIE SRQ HRV KH03I LFK KF12C ABI TCS KA21Q ESTWD MCQWN MDLER MNROE HLYWD BRUEN AVATR DAAAY WADUP NEILE SEAVU SHELL RW25R
TRACK DATA
50,000 ft 1,000 kts
AIRCRAFT INFO AND CUMULATIVE STATS
Aircraft Type: 
B772
Registration: 
SELCAL: 
BLEK
MSN/LN: 
32638 / 376
Operator: 
Total Flights: 
9
Total Block Time: 
30.1 hrs
Total Flight Time: 
26.7 hrs
Total Fuel Used: 
406,554 lb
DATALINK LOG | Newest first | Current as of: 2022-09-30 02:50:54
LABEL SEQUENCE CONTENT Dn/Up
QD445305:43 18.5▼ Dn
QC304205:29▼ Dn
2U5027KLAX 250353Z 26008KT 10SM BKN015 13/10 A2997 RMK AO2 SLP146 T01330100▲ Up
2S5205KLAX▼ Dn
2U5512KLAX 250159Z 28012KT 10SM SCT012 14/11 A2996 RMK AO2 T01390106▲ Up
2S5613KLAX▼ Dn
QB163800:15▼ Dn
QA541723:52 102.5▼ Dn
2U0910KMIA 242153Z 17011KT 10SM FEW025 SCT150 SCT250 29/22 A2995 RMK AO2 SLP142 T02890217 $▲ Up
2S1034KMIA▼ Dn
A34216NO MATCHING FLIGHT DATA AVAILABLE FROM ANSP▲ Up
Q04106[LINK ACK]▲ Up
Q04106[LINK TEST]▼ Dn


AIRCRAFT HISTORY
FLIGHT DATE FLIGHT NO. ORIGIN DESTINATION CLEARED ROUTE BLOCK TIME FLIGHT TIME FUEL USED PILOT
2022-02-04AAL204KORD KJFK KORD DUFEE ELX HAAKK DOXXY DXO JHW HOXIE DMACK STENT MAGIO LVZ KJFK1.7 hrs1.5 hrs24,215 lbJohn Binner
2021-12-25AAL2303KMIA KORD KMIA CSALT DEALZ SOESO NIBLT JOENZ HURCN JAYMC KPASA JINOS BRUTS JAMIZ JOHNN ATL KAILL GLAZR JEDER HELUB VOSTK ROYYZ HEVAN BONNT NYLEN VEECK BOONE HANNI CLUSO KAYTO PINKK MONKZ JORJO POSSM FNUCH RW22R3.5 hrs2.9 hrs42,573 lbMichael Collier
2021-12-13AAL529KLAX KMIA KLAX DOCKR WEILR SHAEF PEVEE TANNN NNICE PNDAH TCATE IPL HEEDS BZA HOGGZ MOHAK JUDTH GBN TFD TOTEC ITEMM SSO EWM KA09W FUSCO KH03C KAPAA KH87I LEV BLVNS BUNNZ BACCA CIGAR GAWKS BAGGS BETTL MATCY RAKLE HARAP FROGZ ARRTT ASPPN PBJAY MABYB ACERE LLEGG COPRA RW08R4.6 hrs4.3 hrs57,090 lbDan Downs
2021-04-24AAL314KMIA KLAX KMIA SENOY CIMBA FORKK BORLE MEAGN WINCO CHRRI DOLIE SRQ HRV KH03I LFK KF12C ABI TCS KA21Q ESTWD MCQWN MDLER MNROE HLYWD BRUEN AVATR DAAAY WADUP NEILE SEAVU SHELL RW25R5.8 hrs5.2 hrs83,880 lbDouglas Morlan
2021-04-24AAL424KDEN KMIA KDEN SHAYK BVO RZC LIT MGM ACORI BULZI SNAPY NICKI BITNY ENDEW JUULI KMIA3.4 hrs3.1 hrs47,816 lbDouglas Morlan
2021-03-13AAL267KBOS KDEN KBOS TJAYY BOATT HEARR MARBB HYLND HANAA ARNII GOATR AHPAH KELTI CFQHD AGDOX OMRAK CFRCN HOCKE MONEE DBQ CAPPR JORDY TODDO OBH BRWRY DUNKL KOLSH PLZNR LAWGR PPINT BURRP YUPEE FFFAT DOGGG DORRY RW35R4.5 hrs4.2 hrs63,697 lbPete L.
2021-02-21AAL4756KORD KBOS KORD EBAKE WISMO POSTS PADDE SVM DKK PONCT STOLI MNSTA SEETS DUBLE BASEZ JFUND AUTUM WINTA HRRIS SPYSD REVER SEHAG LONER RW272.1 hrs1.6 hrs25,273 lbGeorge
2021-02-21AAL4201KAUS KORD KAUS WLMRT ELOEL KLNGR FUZ MLC SGF WELTS MCDEE CASHN VINCA MAROC KELTS FNBAR TRIDE SHAIN RAGSS JUMPN NUNWS RRUDA RW10C2.2 hrs1.8 hrs27,353 lbGeorge
2021-02-21AAL519KLAS KAUS KLAS INW CNX KA21W KF15Y DILLO KAUS2.4 hrs2 hrs34,657 lbChemtrails